createdAt,value
2017-06-04T00:00:10.185Z,0
2017-06-04T00:01:10.180Z,0
2017-06-04T00:02:09.876Z,0
2017-06-04T00:03:09.883Z,0
2017-06-04T00:04:09.900Z,0
2017-06-04T00:05:09.591Z,0
2017-06-04T00:06:09.962Z,0
2017-06-04T00:07:09.915Z,0
2017-06-04T00:08:09.923Z,0
2017-06-04T00:09:09.939Z,0
2017-06-04T00:10:10.263Z,0
2017-06-04T00:11:10.270Z,0
2017-06-04T00:12:09.965Z,0
2017-06-04T00:13:09.975Z,0
2017-06-04T00:14:09.987Z,0
2017-06-04T00:15:09.681Z,0
2017-06-04T00:16:10.318Z,0
2017-06-04T00:17:24.891Z,0
2017-06-04T00:18:10.332Z,0
2017-06-04T00:19:10.076Z,0
2017-06-04T00:20:10.031Z,0
2017-06-04T00:21:10.046Z,0
2017-06-04T00:22:10.054Z,0
2017-06-04T00:23:10.374Z,0
2017-06-04T00:24:10.122Z,0
2017-06-04T00:25:10.085Z,0
2017-06-04T00:26:10.402Z,0
2017-06-04T00:27:10.406Z,0
2017-06-04T00:28:10.415Z,0
2017-06-04T00:29:10.484Z,0
2017-06-04T00:30:10.173Z,0
2017-06-04T00:31:10.443Z,0
2017-06-04T00:32:10.451Z,0
2017-06-04T00:33:10.178Z,0
2017-06-04T00:34:09.845Z,0
2017-06-04T00:35:10.486Z,0
2017-06-04T00:36:10.495Z,0
2017-06-04T00:37:10.190Z,0
2017-06-04T00:38:10.249Z,0
2017-06-04T00:39:10.209Z,0
2017-06-04T00:40:10.527Z,0
2017-06-04T00:41:10.530Z,0
2017-06-04T00:42:10.539Z,0
2017-06-04T00:43:10.602Z,0
2017-06-04T00:44:10.253Z,0
2017-06-04T00:45:10.308Z,0
2017-06-04T00:46:09.958Z,0
2017-06-04T00:47:10.277Z,0
2017-06-04T00:48:10.596Z,0
2017-06-04T00:49:10.295Z,0
2017-06-04T00:50:10.297Z,0
2017-06-04T00:51:10.624Z,0
2017-06-04T00:52:10.070Z,0
2017-06-04T00:53:10.018Z,0
2017-06-04T00:54:10.416Z,0
2017-06-04T00:55:10.343Z,0
2017-06-04T00:56:10.660Z,0
2017-06-04T00:57:10.409Z,0
2017-06-04T00:58:10.688Z,0
2017-06-04T00:59:10.696Z,0
2017-06-04T01:00:10.698Z,0
2017-06-04T01:01:10.708Z,0
2017-06-04T01:02:10.096Z,0
2017-06-04T01:03:10.465Z,0
2017-06-04T01:04:10.727Z,0
2017-06-04T01:05:10.431Z,0
2017-06-04T01:06:10.517Z,0
2017-06-04T01:07:09.840Z,0
2017-06-04T01:08:10.766Z,0
2017-06-04T01:09:10.466Z,0
2017-06-04T01:10:10.786Z,0
2017-06-04T01:11:10.846Z,0
2017-06-04T01:12:10.807Z,0
2017-06-04T01:13:10.819Z,0
2017-06-04T01:14:10.193Z,0
2017-06-04T01:15:10.511Z,0
2017-06-04T01:16:10.837Z,0
2017-06-04T01:17:10.845Z,0
2017-06-04T01:18:10.860Z,0
2017-06-04T01:19:10.866Z,0
2017-06-04T01:20:10.561Z,0
2017-06-04T01:21:10.568Z,0
2017-06-04T01:22:10.632Z,0
2017-06-04T01:23:10.273Z,0
2017-06-04T01:24:10.907Z,0
2017-06-04T01:25:10.968Z,0
2017-06-04T01:26:10.608Z,0
2017-06-04T01:27:10.358Z,0
2017-06-04T01:28:10.940Z,0
2017-06-04T01:29:10.945Z,0
2017-06-04T01:30:10.950Z,0
2017-06-04T01:31:10.963Z,0
2017-06-04T01:32:10.693Z,0
2017-06-04T01:33:10.982Z,0
2017-06-04T01:34:10.989Z,0
2017-06-04T01:35:10.690Z,0
2017-06-04T01:36:10.492Z,0
2017-06-04T01:37:10.791Z,0
2017-06-04T01:38:11.021Z,0
2017-06-04T01:39:11.035Z,0
2017-06-04T01:40:11.098Z,0
2017-06-04T01:41:10.739Z,0
2017-06-04T01:42:10.750Z,0
2017-06-04T01:43:10.760Z,0
2017-06-04T01:44:11.128Z,0
2017-06-04T01:45:10.774Z,0
2017-06-04T01:46:10.471Z,0
2017-06-04T01:47:10.838Z,0
2017-06-04T01:48:10.853Z,0
2017-06-04T01:49:10.497Z,0
2017-06-04T01:50:10.819Z,0
2017-06-04T01:51:11.145Z,0
2017-06-04T01:52:10.911Z,0
2017-06-04T01:53:10.841Z,0
2017-06-04T01:54:11.163Z,0
2017-06-04T01:55:10.873Z,0
2017-06-04T01:56:10.872Z,0
2017-06-04T01:57:10.879Z,0
2017-06-04T01:58:11.244Z,0
2017-06-04T01:59:11.253Z,0
2017-06-04T02:00:10.902Z,0
2017-06-04T02:01:11.272Z,0
2017-06-04T02:02:10.918Z,0
2017-06-04T02:03:10.956Z,0
2017-06-04T02:04:11.251Z,0
2017-06-04T02:05:10.948Z,0
2017-06-04T02:06:11.329Z,0
2017-06-04T02:07:10.961Z,0
2017-06-04T02:08:11.281Z,0
2017-06-04T02:09:11.288Z,0
2017-06-04T02:10:11.304Z,0
2017-06-04T02:11:11.360Z,0
2017-06-04T02:12:11.323Z,0
2017-06-04T02:13:10.712Z,0
2017-06-04T02:14:10.761Z,0
2017-06-04T02:15:11.395Z,0
2017-06-04T02:16:10.727Z,0
2017-06-04T02:17:10.741Z,0
2017-06-04T02:18:11.372Z,0
2017-06-04T02:19:10.760Z,0
2017-06-04T02:20:11.132Z,0
2017-06-04T02:21:11.402Z,0
2017-06-04T02:22:11.404Z,0
2017-06-04T02:23:11.464Z,0
2017-06-04T02:24:10.796Z,0
2017-06-04T02:25:10.810Z,0
2017-06-04T02:26:11.489Z,0
2017-06-04T02:27:11.450Z,0
2017-06-04T02:28:11.452Z,0
2017-06-04T02:29:11.463Z,0
2017-06-04T02:30:11.160Z,0
2017-06-04T02:31:10.860Z,0
2017-06-04T02:32:11.543Z,0
2017-06-04T02:33:11.200Z,0
2017-06-04T02:34:11.197Z,0
2017-06-04T02:35:11.201Z,0
2017-06-04T02:36:11.522Z,0
2017-06-04T02:37:11.534Z,0
2017-06-04T02:38:10.970Z,0
2017-06-04T02:39:11.546Z,0
2017-06-04T02:40:11.604Z,0
2017-06-04T02:41:11.309Z,0
2017-06-04T02:42:11.316Z,0
2017-06-04T02:43:11.023Z,0
2017-06-04T02:44:11.642Z,0
2017-06-04T02:45:11.652Z,0
2017-06-04T02:46:11.607Z,0
2017-06-04T02:47:11.616Z,0
2017-06-04T02:48:11.316Z,0
2017-06-04T02:49:11.331Z,0
2017-06-04T02:50:11.047Z,0
2017-06-04T02:51:11.041Z,0
2017-06-04T02:52:11.355Z,0
2017-06-04T02:53:11.067Z,0
2017-06-04T02:54:11.369Z,0
2017-06-04T02:55:11.741Z,0
2017-06-04T02:56:11.705Z,0
2017-06-04T02:57:11.393Z,0
2017-06-04T02:58:11.766Z,0
2017-06-04T02:59:11.419Z,0
2017-06-04T03:00:11.120Z,0
2017-06-04T03:01:11.798Z,0
2017-06-04T03:02:11.768Z,0
2017-06-04T03:03:11.764Z,0
2017-06-04T03:04:11.776Z,0
2017-06-04T03:05:11.524Z,0
2017-06-04T03:06:11.794Z,0
2017-06-04T03:07:11.832Z,0
2017-06-04T03:08:11.808Z,0
2017-06-04T03:09:11.506Z,0
2017-06-04T03:10:11.831Z,0
2017-06-04T03:11:11.576Z,0
2017-06-04T03:12:11.848Z,4
2017-06-04T03:13:11.904Z,4
2017-06-04T03:14:11.872Z,4
2017-06-04T03:15:11.878Z,4
2017-06-04T03:16:11.891Z,4
2017-06-04T03:17:11.890Z,4
2017-06-04T03:18:11.590Z,4
2017-06-04T03:19:11.597Z,4
2017-06-04T03:20:11.320Z,4
2017-06-04T03:21:11.930Z,4
2017-06-04T03:22:11.627Z,4
2017-06-04T03:23:11.942Z,4
2017-06-04T03:24:11.698Z,4
2017-06-04T03:25:11.966Z,4
2017-06-04T03:26:11.763Z,4
2017-06-04T03:27:11.359Z,8
2017-06-04T03:28:11.679Z,4
2017-06-04T03:29:11.401Z,8
2017-06-04T03:30:11.748Z,8
2017-06-04T03:31:11.713Z,8
2017-06-04T03:32:12.014Z,8
2017-06-04T03:33:12.032Z,12
2017-06-04T03:34:12.048Z,12
2017-06-04T03:35:11.121Z,12
2017-06-04T03:36:12.166Z,16
2017-06-04T03:37:12.124Z,16
2017-06-04T03:38:11.819Z,20
2017-06-04T03:39:11.780Z,20
2017-06-04T03:40:11.790Z,24
2017-06-04T03:41:12.110Z,24
2017-06-04T03:42:11.859Z,24
2017-06-04T03:43:12.130Z,20
2017-06-04T03:44:11.824Z,24
2017-06-04T03:45:11.890Z,20
2017-06-04T03:46:12.210Z,20
2017-06-04T03:47:11.640Z,24
2017-06-04T03:48:12.168Z,24
2017-06-04T03:49:12.182Z,24
2017-06-04T03:50:11.928Z,24
2017-06-04T03:51:12.245Z,20
2017-06-04T03:52:12.308Z,24
2017-06-04T03:53:12.212Z,24
2017-06-04T03:54:12.279Z,28
2017-06-04T03:55:11.614Z,28
2017-06-04T03:56:11.935Z,28
2017-06-04T03:57:11.995Z,28
2017-06-04T03:58:11.956Z,28
2017-06-04T03:59:12.269Z,28
2017-06-04T04:00:11.967Z,32
2017-06-04T04:01:12.290Z,36
2017-06-04T04:02:11.987Z,36
2017-06-04T04:03:12.307Z,36
2017-06-04T04:04:12.376Z,40
2017-06-04T04:05:12.017Z,40
2017-06-04T04:06:11.715Z,44
2017-06-04T04:07:12.643Z,44
2017-06-04T04:08:11.729Z,48
2017-06-04T04:09:11.738Z,52
2017-06-04T04:10:12.373Z,52
2017-06-04T04:11:12.068Z,56
2017-06-04T04:12:12.082Z,60
2017-06-04T04:13:12.398Z,64
2017-06-04T04:14:12.153Z,64
2017-06-04T04:15:12.106Z,68
2017-06-04T04:16:12.216Z,72
2017-06-04T04:17:12.486Z,72
2017-06-04T04:18:12.138Z,68
2017-06-04T04:19:12.453Z,68
2017-06-04T04:20:12.153Z,64
2017-06-04T04:21:12.467Z,60
2017-06-04T04:22:12.528Z,56
2017-06-04T04:23:12.538Z,60
2017-06-04T04:24:12.239Z,60
2017-06-04T04:25:12.506Z,64
2017-06-04T04:26:12.202Z,68
2017-06-04T04:27:12.262Z,72
2017-06-04T04:28:12.223Z,72
2017-06-04T04:29:12.544Z,76
2017-06-04T04:30:12.603Z,84
2017-06-04T04:31:11.988Z,88
2017-06-04T04:32:12.665Z,92
2017-06-04T04:33:12.575Z,96
2017-06-04T04:34:12.322Z,104
2017-06-04T04:35:12.645Z,108
2017-06-04T04:36:12.602Z,112
2017-06-04T04:37:12.661Z,120
2017-06-04T04:38:12.360Z,120
2017-06-04T04:39:12.322Z,128
2017-06-04T04:40:12.014Z,136
2017-06-04T04:41:12.335Z,136
2017-06-04T04:42:12.349Z,132
2017-06-04T04:43:12.355Z,128
2017-06-04T04:44:12.364Z,132
2017-06-04T04:45:12.430Z,136
2017-06-04T04:46:12.429Z,132
2017-06-04T04:47:12.802Z,136
2017-06-04T04:48:12.086Z,144
2017-06-04T04:49:12.722Z,152
2017-06-04T04:50:12.114Z,152
2017-06-04T04:51:12.736Z,160
2017-06-04T04:52:12.743Z,172
2017-06-04T04:53:12.865Z,172
2017-06-04T04:54:12.138Z,164
2017-06-04T04:55:12.771Z,180
2017-06-04T04:56:12.831Z,172
2017-06-04T04:57:12.481Z,168
2017-06-04T04:58:12.483Z,172
2017-06-04T04:59:11.928Z,164
2017-06-04T05:00:12.813Z,140
2017-06-04T05:01:12.518Z,140
2017-06-04T05:02:12.880Z,144
2017-06-04T05:03:12.528Z,152
2017-06-04T05:04:12.845Z,168
2017-06-04T05:05:12.856Z,180
2017-06-04T05:06:12.558Z,184
2017-06-04T05:07:12.927Z,184
2017-06-04T05:08:12.315Z,180
2017-06-04T05:09:12.585Z,176
2017-06-04T05:10:12.903Z,180
2017-06-04T05:11:12.650Z,180
2017-06-04T05:12:12.298Z,172
2017-06-04T05:13:12.935Z,172
2017-06-04T05:14:12.630Z,168
2017-06-04T05:15:12.326Z,164
2017-06-04T05:16:12.955Z,176
2017-06-04T05:17:12.965Z,176
2017-06-04T05:18:12.662Z,180
2017-06-04T05:19:13.031Z,168
2017-06-04T05:20:12.680Z,164
2017-06-04T05:21:13.367Z,180
2017-06-04T05:22:13.065Z,200
2017-06-04T05:23:13.011Z,212
2017-06-04T05:24:13.081Z,224
2017-06-04T05:25:13.040Z,240
2017-06-04T05:26:13.042Z,256
2017-06-04T05:27:13.066Z,260
2017-06-04T05:28:13.058Z,276
2017-06-04T05:29:13.118Z,288
2017-06-04T05:30:12.765Z,320
2017-06-04T05:31:12.872Z,364
2017-06-04T05:32:13.098Z,388
2017-06-04T05:33:13.151Z,400
2017-06-04T05:34:12.796Z,432
2017-06-04T05:35:12.544Z,460
2017-06-04T05:36:13.142Z,484
2017-06-04T05:37:13.140Z,484
2017-06-04T05:38:12.833Z,460
2017-06-04T05:39:13.149Z,456
2017-06-04T05:40:12.600Z,468
2017-06-04T05:41:13.217Z,488
2017-06-04T05:42:12.552Z,464
2017-06-04T05:43:13.193Z,480
2017-06-04T05:44:13.244Z,480
2017-06-04T05:45:13.215Z,460
2017-06-04T05:46:13.211Z,448
2017-06-04T05:47:12.286Z,452
2017-06-04T05:48:12.922Z,424
2017-06-04T05:49:12.609Z,416
2017-06-04T05:50:12.984Z,392
2017-06-04T05:51:12.633Z,380
2017-06-04T05:52:12.639Z,356
2017-06-04T05:53:13.269Z,336
2017-06-04T05:54:13.362Z,336
2017-06-04T05:55:13.293Z,324
2017-06-04T05:56:13.346Z,316
2017-06-04T05:57:12.993Z,328
2017-06-04T05:58:12.692Z,348
2017-06-04T05:59:13.321Z,368
2017-06-04T06:00:13.328Z,396
2017-06-04T06:01:13.351Z,448
2017-06-04T06:02:13.345Z,428
2017-06-04T06:03:13.352Z,468
2017-06-04T06:04:12.740Z,508
2017-06-04T06:05:13.060Z,516
2017-06-04T06:06:13.072Z,520
2017-06-04T06:07:13.078Z,528
2017-06-04T06:08:13.399Z,524
2017-06-04T06:09:12.785Z,512
2017-06-04T06:10:13.417Z,488
2017-06-04T06:11:13.112Z,460
2017-06-04T06:12:13.120Z,448
2017-06-04T06:13:13.441Z,456
2017-06-04T06:14:13.143Z,468
2017-06-04T06:15:13.182Z,488
2017-06-04T06:16:13.476Z,520
2017-06-04T06:17:13.479Z,540
2017-06-04T06:18:12.863Z,508
2017-06-04T06:19:13.186Z,532
2017-06-04T06:20:13.188Z,584
2017-06-04T06:21:13.251Z,604
2017-06-04T06:22:13.527Z,600
2017-06-04T06:23:13.631Z,548
2017-06-04T06:24:13.226Z,568
2017-06-04T06:25:13.233Z,608
2017-06-04T06:26:12.935Z,588
2017-06-04T06:27:13.582Z,632
2017-06-04T06:28:12.950Z,696
2017-06-04T06:29:12.961Z,708
2017-06-04T06:30:13.277Z,692
2017-06-04T06:31:13.595Z,652
2017-06-04T06:32:13.629Z,596
2017-06-04T06:33:13.304Z,624
2017-06-04T06:34:13.361Z,716
2017-06-04T06:35:13.679Z,884
2017-06-04T06:36:13.688Z,1292
2017-06-04T06:37:13.339Z,1356
2017-06-04T06:38:13.347Z,1068
2017-06-04T06:39:13.358Z,996
2017-06-04T06:40:13.100Z,832
2017-06-04T06:41:13.369Z,816
2017-06-04T06:42:13.682Z,860
2017-06-04T06:43:13.076Z,1028
2017-06-04T06:44:13.398Z,1784
2017-06-04T06:45:13.405Z,1604
2017-06-04T06:46:13.419Z,1004
2017-06-04T06:47:13.785Z,768
2017-06-04T06:48:13.748Z,836
2017-06-04T06:49:13.755Z,788
2017-06-04T06:50:13.762Z,772
2017-06-04T06:51:13.461Z,864
2017-06-04T06:52:13.786Z,1104
2017-06-04T06:53:13.475Z,904
2017-06-04T06:54:13.852Z,896
2017-06-04T06:55:13.234Z,1188
2017-06-04T06:56:13.813Z,1948
2017-06-04T06:57:13.512Z,1764
2017-06-04T06:58:13.518Z,1256
2017-06-04T06:59:13.850Z,1036
2017-06-04T07:00:13.788Z,1916
2017-06-04T07:01:13.287Z,1304
2017-06-04T07:02:13.870Z,1320
2017-06-04T07:03:13.564Z,1344
2017-06-04T07:04:13.890Z,1320
2017-06-04T07:05:13.588Z,2396
2017-06-04T07:06:13.588Z,1192
2017-06-04T07:07:13.922Z,1004
2017-06-04T07:08:13.914Z,908
2017-06-04T07:09:13.951Z,1208
2017-06-04T07:10:13.675Z,4996
2017-06-04T07:11:13.640Z,2356
2017-06-04T07:12:13.955Z,1992
2017-06-04T07:13:13.733Z,1688
2017-06-04T07:14:13.661Z,11628
2017-06-04T07:15:13.361Z,7388
2017-06-04T07:16:13.063Z,3272
2017-06-04T07:17:14.001Z,1652
2017-06-04T07:18:13.128Z,1580
2017-06-04T07:19:14.016Z,1412
2017-06-04T07:20:14.028Z,944
2017-06-04T07:21:13.722Z,792
2017-06-04T07:22:13.739Z,816
2017-06-04T07:23:13.478Z,1208
2017-06-04T07:24:13.442Z,1160
2017-06-04T07:25:14.123Z,880
2017-06-04T07:26:13.767Z,1296
2017-06-04T07:27:13.776Z,1468
2017-06-04T07:28:13.785Z,1012
2017-06-04T07:29:14.108Z,1392
2017-06-04T07:30:14.115Z,1928
2017-06-04T07:31:13.500Z,2136
2017-06-04T07:32:14.129Z,1892
2017-06-04T07:33:13.827Z,1248
2017-06-04T07:34:14.203Z,1080
2017-06-04T07:35:13.532Z,912
2017-06-04T07:36:13.906Z,740
2017-06-04T07:37:13.912Z,764
2017-06-04T07:38:14.179Z,732
2017-06-04T07:39:14.189Z,708
2017-06-04T07:40:14.249Z,716
2017-06-04T07:41:13.943Z,864
2017-06-04T07:42:14.207Z,1332
2017-06-04T07:43:14.273Z,1716
2017-06-04T07:44:13.980Z,1644
2017-06-04T07:45:14.243Z,1608
2017-06-04T07:46:13.629Z,2056
2017-06-04T07:47:13.635Z,1460
2017-06-04T07:48:14.267Z,2016
2017-06-04T07:49:13.658Z,944
2017-06-04T07:50:13.972Z,816
2017-06-04T07:51:14.296Z,764
2017-06-04T07:52:14.350Z,744
2017-06-04T07:53:14.360Z,968
2017-06-04T07:54:14.057Z,1664
2017-06-04T07:55:14.328Z,1532
2017-06-04T07:56:13.457Z,984
2017-06-04T07:57:13.461Z,1464
2017-06-04T07:58:14.041Z,2200
2017-06-04T07:59:14.359Z,2500
2017-06-04T08:00:14.135Z,2388
2017-06-04T08:01:14.386Z,2060
2017-06-04T08:02:14.389Z,1908
2017-06-04T08:03:14.442Z,1924
2017-06-04T08:04:14.098Z,2868
2017-06-04T08:05:13.840Z,2864
2017-06-04T08:06:14.422Z,2936
2017-06-04T08:07:14.426Z,2768
2017-06-04T08:08:14.435Z,2088
2017-06-04T08:09:14.446Z,1784
2017-06-04T08:10:13.521Z,1308
2017-06-04T08:11:14.199Z,972
2017-06-04T08:12:14.500Z,844
2017-06-04T08:13:13.853Z,848
2017-06-04T08:14:13.866Z,1616
2017-06-04T08:16:14.555Z,1604
2017-06-04T08:17:14.202Z,1644
2017-06-04T08:19:14.579Z,2304
2017-06-04T08:21:14.595Z,1772
2017-06-04T08:22:14.603Z,1360
2017-06-04T08:23:14.253Z,1252
2017-06-04T08:24:14.261Z,1200
2017-06-04T08:25:13.957Z,1628
2017-06-04T08:26:14.590Z,1648
2017-06-04T08:27:14.349Z,1800
2017-06-04T08:28:14.605Z,1728
2017-06-04T08:29:29.185Z,1524
2017-06-04T08:30:14.315Z,1620
2017-06-04T08:31:14.680Z,1400
2017-06-04T08:32:14.383Z,1220
2017-06-04T08:33:14.647Z,1580
2017-06-04T08:34:14.709Z,1920
2017-06-04T08:35:29.245Z,2192
2017-06-04T08:36:14.679Z,2368
2017-06-04T08:37:14.691Z,2440
2017-06-04T08:38:14.071Z,2172
2017-06-04T08:40:15.028Z,1816
2017-06-04T08:41:28.987Z,1512
2017-06-04T08:43:14.483Z,1360
2017-06-04T08:44:14.744Z,1204
2017-06-04T08:47:29.345Z,912
2017-06-04T08:48:29.046Z,800
2017-06-04T08:49:29.054Z,692
2017-06-04T08:50:29.428Z,600
2017-06-04T08:51:14.860Z,544
2017-06-04T08:52:14.817Z,472
2017-06-04T08:53:29.395Z,456
2017-06-04T08:54:14.570Z,472
2017-06-04T08:55:14.584Z,512
2017-06-04T08:56:44.046Z,632
2017-06-04T08:57:14.859Z,684
2017-06-04T08:58:29.126Z,848
2017-06-04T08:59:14.251Z,956
2017-06-04T09:01:14.888Z,880
2017-06-04T09:02:44.038Z,680
2017-06-04T09:03:14.903Z,692
2017-06-04T09:04:14.598Z,732
2017-06-04T09:05:29.492Z,672
2017-06-04T09:07:29.198Z,672
2017-06-04T09:08:14.944Z,680
2017-06-04T09:09:29.314Z,736
2017-06-04T09:10:14.649Z,836
2017-06-04T09:11:14.975Z,920
2017-06-04T09:12:14.668Z,1604
2017-06-04T09:14:14.996Z,1396
2017-06-04T09:15:14.691Z,1476
2017-06-04T09:16:29.588Z,892
2017-06-04T09:17:14.713Z,832
2017-06-04T09:20:14.422Z,668
2017-06-04T09:21:29.627Z,688
2017-06-04T09:22:29.629Z,884
2017-06-04T09:23:44.221Z,1160
2017-06-04T09:24:29.340Z,1560
2017-06-04T09:25:44.228Z,1288
2017-06-04T09:26:14.786Z,1540
2017-06-04T09:27:14.791Z,1904
2017-06-04T09:28:29.687Z,1996
2017-06-04T09:30:29.700Z,1440
2017-06-04T09:31:29.708Z,1104
2017-06-04T09:32:15.146Z,996
2017-06-04T09:34:29.735Z,784
2017-06-04T09:35:29.432Z,656
2017-06-04T09:36:14.869Z,576
2017-06-04T09:37:15.192Z,560
2017-06-04T09:38:15.246Z,524
2017-06-04T09:40:29.789Z,432
2017-06-04T09:42:44.374Z,496
2017-06-04T09:44:29.898Z,508
2017-06-04T09:45:15.254Z,536
2017-06-04T09:46:29.524Z,600
2017-06-04T09:49:14.768Z,708
2017-06-04T09:50:29.872Z,1612
2017-06-04T09:51:14.684Z,1796
2017-06-04T09:52:15.003Z,1916
2017-06-04T09:53:29.893Z,1828
2017-06-04T09:54:15.020Z,2084
2017-06-04T09:55:29.911Z,2096
2017-06-04T09:57:15.405Z,1992
2017-06-04T09:58:29.939Z,1820
2017-06-04T09:59:29.631Z,1928
2017-06-04T10:00:15.128Z,1912
2017-06-04T10:01:44.534Z,1932
2017-06-04T10:02:44.552Z,1912
2017-06-04T10:04:14.844Z,1868
2017-06-04T10:05:29.996Z,1928
2017-06-04T10:06:15.434Z,1912
2017-06-04T10:07:15.450Z,1788
2017-06-04T10:08:29.710Z,1680
2017-06-04T10:09:44.600Z,1744
2017-06-04T10:11:30.048Z,1852
2017-06-04T10:12:15.481Z,1884
2017-06-04T10:13:46.952Z,1840
2017-06-04T10:14:44.695Z,1796
2017-06-04T10:15:30.130Z,1768
2017-06-04T10:16:30.139Z,1704
2017-06-04T10:17:44.670Z,1596
2017-06-04T10:18:15.534Z,980
2017-06-04T10:19:44.735Z,936
2017-06-04T10:20:15.242Z,1548
2017-06-04T10:21:15.246Z,1564
2017-06-04T10:24:15.275Z,1204
2017-06-04T10:25:15.597Z,1176
2017-06-04T10:26:14.980Z,1108
2017-06-04T10:27:15.376Z,1052
2017-06-04T10:28:44.764Z,1088
2017-06-04T10:29:15.106Z,1108
2017-06-04T10:30:15.685Z,1148
2017-06-04T10:31:30.218Z,1772
2017-06-04T10:32:15.653Z,1220
2017-06-04T10:33:15.097Z,1256
2017-06-04T10:34:15.407Z,1160
2017-06-04T10:35:29.968Z,1180
2017-06-04T10:36:30.264Z,1200
2017-06-04T10:39:30.286Z,1184
2017-06-04T10:40:30.344Z,1300
2017-06-04T10:41:15.422Z,1612
2017-06-04T10:43:30.320Z,1724
2017-06-04T10:44:15.451Z,1704
2017-06-04T10:45:30.388Z,1588
2017-06-04T10:46:15.829Z,1540
2017-06-04T10:47:44.933Z,1528
2017-06-04T10:48:30.365Z,1528
2017-06-04T10:49:15.491Z,1536
2017-06-04T10:50:30.074Z,1540
2017-06-04T10:51:15.820Z,1556
2017-06-04T10:52:30.430Z,1552
2017-06-04T10:53:15.528Z,1548
2017-06-04T10:54:15.849Z,1548
2017-06-04T10:57:30.132Z,1512
2017-06-04T10:58:15.624Z,1500
2017-06-04T10:59:15.585Z,1548
2017-06-04T11:00:15.975Z,1544
2017-06-04T11:01:30.482Z,1528
2017-06-04T11:02:15.604Z,1556
2017-06-04T11:03:44.760Z,1156
2017-06-04T11:04:30.249Z,1564
2017-06-04T11:05:15.631Z,1532
2017-06-04T11:06:30.527Z,952
2017-06-04T11:07:15.705Z,876
2017-06-04T11:08:15.968Z,824
2017-06-04T11:09:30.243Z,784
2017-06-04T11:10:15.675Z,752
2017-06-04T11:11:15.689Z,780
2017-06-04T11:12:16.054Z,1028
2017-06-04T11:13:45.209Z,916
2017-06-04T11:14:15.715Z,1304
2017-06-04T11:15:16.083Z,888
2017-06-04T11:16:16.049Z,892
2017-06-04T11:17:30.002Z,1160
2017-06-04T11:19:30.645Z,908
2017-06-04T11:21:30.654Z,908
2017-06-04T11:22:16.126Z,928
2017-06-04T11:23:16.133Z,1520
2017-06-04T11:25:15.809Z,1644
2017-06-04T11:26:30.386Z,1656
2017-06-04T11:27:16.182Z,1668
2017-06-04T11:28:15.959Z,1624
2017-06-04T11:29:16.148Z,1440
2017-06-04T11:30:16.161Z,1156
2017-06-04T11:32:30.743Z,1080
2017-06-04T11:33:30.756Z,1012
2017-06-04T11:34:59.957Z,968
2017-06-04T11:35:30.774Z,940
2017-06-04T11:36:30.830Z,884
2017-06-04T11:39:16.230Z,856
2017-06-04T11:40:15.934Z,904
2017-06-04T11:41:16.553Z,912
2017-06-04T11:43:45.097Z,936
2017-06-04T11:44:30.850Z,948
2017-06-04T11:46:16.302Z,936
2017-06-04T11:47:30.879Z,936
2017-06-04T11:48:15.687Z,952
2017-06-04T11:50:30.638Z,944
2017-06-04T11:52:16.344Z,976
2017-06-04T11:53:30.725Z,912
2017-06-04T11:55:16.378Z,764
2017-06-04T11:56:16.124Z,676
2017-06-04T11:57:16.393Z,600
2017-06-04T11:58:16.142Z,544
2017-06-04T12:00:16.417Z,520
2017-06-04T12:01:31.003Z,764
2017-06-04T12:03:16.187Z,660
2017-06-04T12:04:16.502Z,872
2017-06-04T12:05:16.212Z,828
2017-06-04T12:06:30.420Z,836
2017-06-04T12:07:16.482Z,828
2017-06-04T12:09:30.771Z,896
2017-06-04T12:10:31.076Z,1144
2017-06-04T12:11:30.886Z,1044
2017-06-04T12:13:31.100Z,792
2017-06-04T12:14:16.237Z,700
2017-06-04T12:15:30.861Z,608
2017-06-04T12:17:16.359Z,536
2017-06-04T12:18:16.258Z,540
2017-06-04T12:19:16.579Z,536
2017-06-04T12:20:16.587Z,536
2017-06-04T12:21:31.219Z,548
2017-06-04T12:22:31.181Z,556
2017-06-04T12:23:16.301Z,556
2017-06-04T12:24:16.362Z,552
2017-06-04T12:25:16.637Z,572
2017-06-04T12:26:16.727Z,624
2017-06-04T12:27:16.651Z,668
2017-06-04T12:28:16.658Z,704
2017-06-04T12:29:16.402Z,748
2017-06-04T12:30:16.675Z,784
2017-06-04T12:32:16.790Z,876
2017-06-04T12:33:15.817Z,912
2017-06-04T12:34:16.715Z,944
2017-06-04T12:36:16.430Z,1296
2017-06-04T12:37:16.838Z,1232
2017-06-04T12:38:16.430Z,1272
2017-06-04T12:39:16.752Z,1148
2017-06-04T12:41:16.453Z,1356
2017-06-04T12:42:16.464Z,1168
2017-06-04T12:43:16.191Z,1164
2017-06-04T12:44:16.796Z,1164
2017-06-04T12:45:31.063Z,1148
2017-06-04T12:46:31.068Z,1320
2017-06-04T12:47:31.390Z,1104
2017-06-04T12:48:16.531Z,1176
2017-06-04T12:49:16.836Z,1016
2017-06-04T12:50:16.530Z,984
2017-06-04T12:52:16.554Z,888
2017-06-04T12:53:16.866Z,804
2017-06-04T12:54:16.877Z,724
2017-06-04T12:56:31.155Z,544
2017-06-04T12:57:31.472Z,476
2017-06-04T12:58:45.795Z,420
2017-06-04T12:59:31.178Z,384
2017-06-04T13:01:16.936Z,340
2017-06-04T13:02:16.938Z,340
2017-06-04T13:03:16.948Z,352
2017-06-04T13:04:31.222Z,376
2017-06-04T13:06:16.978Z,404
2017-06-04T13:07:31.295Z,440
2017-06-04T13:08:16.369Z,452
2017-06-04T13:09:31.568Z,480
2017-06-04T13:10:17.002Z,492
2017-06-04T13:11:17.012Z,532
2017-06-04T13:12:16.401Z,576
2017-06-04T13:13:17.025Z,620
2017-06-04T13:14:16.726Z,668
2017-06-04T13:15:17.052Z,704
2017-06-04T13:16:17.053Z,736
2017-06-04T13:17:17.063Z,772
2017-06-04T13:18:17.074Z,812
2017-06-04T13:19:17.078Z,836
2017-06-04T13:22:31.367Z,764
2017-06-04T13:23:17.114Z,724
2017-06-04T13:24:17.117Z,680
2017-06-04T13:25:31.390Z,636
2017-06-04T13:26:31.708Z,624
2017-06-04T13:27:17.249Z,628
2017-06-04T13:28:17.152Z,636
2017-06-04T13:29:16.540Z,640
2017-06-04T13:30:17.226Z,652
2017-06-04T13:31:31.440Z,668
2017-06-04T13:32:17.185Z,688
2017-06-04T13:33:31.815Z,724
2017-06-04T13:34:17.263Z,756
2017-06-04T13:35:16.950Z,820
2017-06-04T13:36:16.910Z,904
2017-06-04T13:37:31.492Z,996
2017-06-04T13:38:31.549Z,1040
2017-06-04T13:39:17.258Z,1064
2017-06-04T13:40:31.833Z,1056
2017-06-04T13:41:17.259Z,1052
2017-06-04T13:42:17.273Z,1044
2017-06-04T13:43:16.659Z,1052
2017-06-04T13:44:31.911Z,1056
2017-06-04T13:45:16.990Z,1044
2017-06-04T13:47:17.401Z,1016
2017-06-04T13:48:17.018Z,1000
2017-06-04T13:49:46.195Z,976
2017-06-04T13:50:31.663Z,964
2017-06-04T13:52:17.407Z,924
2017-06-04T13:53:17.374Z,900
2017-06-04T13:54:17.377Z,868
2017-06-04T13:55:17.076Z,856
2017-06-04T13:56:17.136Z,864
2017-06-04T13:57:17.089Z,860
2017-06-04T13:58:16.533Z,860
2017-06-04T13:59:31.990Z,828
2017-06-04T14:00:17.167Z,792
2017-06-04T14:01:31.705Z,712
2017-06-04T14:02:32.019Z,652
2017-06-04T14:03:17.506Z,624
2017-06-04T14:05:16.853Z,564
2017-06-04T14:06:32.103Z,492
2017-06-04T14:08:17.189Z,448
2017-06-04T14:09:46.655Z,396
2017-06-04T14:10:17.514Z,380
2017-06-04T14:11:17.211Z,344
2017-06-04T14:12:17.571Z,352
2017-06-04T14:13:31.801Z,372
2017-06-04T14:14:16.941Z,400
2017-06-04T14:15:17.298Z,412
2017-06-04T14:16:17.251Z,436
2017-06-04T14:17:32.195Z,440
2017-06-04T14:19:31.852Z,464
2017-06-04T14:20:17.600Z,472
2017-06-04T14:21:17.599Z,476
2017-06-04T14:22:46.750Z,472
2017-06-04T14:24:17.629Z,520
2017-06-04T14:25:17.631Z,508
2017-06-04T14:26:17.642Z,508
2017-06-04T14:27:17.334Z,516
2017-06-04T14:28:17.703Z,528
2017-06-04T14:29:31.920Z,596
2017-06-04T14:30:17.415Z,640
2017-06-04T14:32:17.111Z,732
2017-06-04T14:33:32.318Z,768
2017-06-04T14:34:17.388Z,792
2017-06-04T14:35:17.396Z,816
2017-06-04T14:36:32.287Z,824
2017-06-04T14:37:32.344Z,828
2017-06-04T14:38:17.735Z,828
2017-06-04T14:40:46.941Z,804
2017-06-04T14:41:46.589Z,772
2017-06-04T14:42:17.813Z,764
2017-06-04T14:43:17.457Z,740
2017-06-04T14:44:17.824Z,716
2017-06-04T14:45:46.930Z,692
2017-06-04T14:46:32.061Z,680
2017-06-04T14:47:17.197Z,680
2017-06-04T14:48:17.921Z,672
2017-06-04T14:50:17.518Z,636
2017-06-04T14:51:17.568Z,612
2017-06-04T14:52:17.847Z,600
2017-06-04T14:53:17.222Z,600
2017-06-04T14:54:17.540Z,592
2017-06-04T14:55:17.862Z,580
2017-06-04T14:56:17.247Z,580
2017-06-04T14:57:17.305Z,580
2017-06-04T14:58:32.459Z,588